< < Back
Terminal Aerodrome Forecast


Current Version              Previous Versions:   1  2  3  4  5  6  7  8  9  

Terminal Aerodrome Forecast

860
FTUS42 KFFC 231700
TAFCSG
TAF
KCSG 231733Z 2318/2418 26006KT P6SM SCT040
     FM240000 28004KT P6SM SCT045
     FM241500 25008G15KT P6SM BKN035
     FM241700 25008G15KT P6SM VCSH BKN035=

Latest METAR

122
SAUS70 KWBC 240400 RRV
MTRCSG
METAR KCSG 240751Z AUTO 00000KT 10SM FEW049 24/22 A2997 RMK AO2 SLP144
T02440222


USA.gov is the U.S. government's official web portal to all federal, state and local government web resources and services.